sensor_id;sensor_type;location;lat;lon;timestamp;temperature;humidity
10175;DHT22;18221;38.704;0.152;2022-11-09T00:00:21;17.70;99.90
10175;DHT22;18221;38.704;0.152;2022-11-09T00:11:42;17.60;99.90
10175;DHT22;18221;38.704;0.152;2022-11-09T00:14:13;17.60;99.90
10175;DHT22;18221;38.704;0.152;2022-11-09T00:16:42;17.60;99.90
10175;DHT22;18221;38.704;0.152;2022-11-09T00:19:10;17.60;99.90
10175;DHT22;18221;38.704;0.152;2022-11-09T00:21:39;17.60;99.90
10175;DHT22;18221;38.704;0.152;2022-11-09T00:24:07;17.60;99.90
10175;DHT22;18221;38.704;0.152;2022-11-09T00:26:34;17.60;99.90
10175;DHT22;18221;38.704;0.152;2022-11-09T00:29:04;17.60;99.90
10175;DHT22;18221;38.704;0.152;2022-11-09T00:31:32;17.60;99.90
10175;DHT22;18221;38.704;0.152;2022-11-09T00:34:00;17.60;99.90
10175;DHT22;18221;38.704;0.152;2022-11-09T00:36:29;17.60;99.90
10175;DHT22;18221;38.704;0.152;2022-11-09T00:38:58;17.60;99.90
10175;DHT22;18221;38.704;0.152;2022-11-09T00:41:27;17.60;99.90
10175;DHT22;18221;38.704;0.152;2022-11-09T00:43:55;17.60;99.90
10175;DHT22;18221;38.704;0.152;2022-11-09T00:46:24;17.60;99.90
10175;DHT22;18221;38.704;0.152;2022-11-09T00:48:53;17.60;99.90
10175;DHT22;18221;38.704;0.152;2022-11-09T00:51:21;17.60;99.90
10175;DHT22;18221;38.704;0.152;2022-11-09T00:53:50;17.60;99.90
10175;DHT22;18221;38.704;0.152;2022-11-09T00:56:19;17.60;99.90
10175;DHT22;18221;38.704;0.152;2022-11-09T00:58:50;17.60;99.90
10175;DHT22;18221;38.704;0.152;2022-11-09T01:01:20;17.60;99.90
10175;DHT22;18221;38.704;0.152;2022-11-09T01:03:49;17.60;99.90
10175;DHT22;18221;38.704;0.152;2022-11-09T01:06:20;17.60;99.90
10175;DHT22;18221;38.704;0.152;2022-11-09T01:08:49;17.70;99.90
10175;DHT22;18221;38.704;0.152;2022-11-09T01:11:18;17.60;99.90
10175;DHT22;18221;38.704;0.152;2022-11-09T01:13:48;17.60;99.90
10175;DHT22;18221;38.704;0.152;2022-11-09T01:16:18;17.60;99.90
10175;DHT22;18221;38.704;0.152;2022-11-09T01:18:50;17.60;99.90
10175;DHT22;18221;38.704;0.152;2022-11-09T01:21:19;17.60;99.90
10175;DHT22;18221;38.704;0.152;2022-11-09T01:23:47;17.60;99.90
10175;DHT22;18221;38.704;0.152;2022-11-09T01:26:15;17.60;99.90
10175;DHT22;18221;38.704;0.152;2022-11-09T01:28:43;17.60;99.90
10175;DHT22;18221;38.704;0.152;2022-11-09T01:31:13;17.60;99.90
10175;DHT22;18221;38.704;0.152;2022-11-09T01:33:43;17.60;99.90
10175;DHT22;18221;38.704;0.152;2022-11-09T01:36:14;17.50;99.90
10175;DHT22;18221;38.704;0.152;2022-11-09T01:38:43;17.60;99.90
10175;DHT22;18221;38.704;0.152;2022-11-09T01:41:13;17.60;99.90
10175;DHT22;18221;38.704;0.152;2022-11-09T01:43:43;17.60;99.90
10175;DHT22;18221;38.704;0.152;2022-11-09T01:46:16;17.60;99.90
10175;DHT22;18221;38.704;0.152;2022-11-09T01:48:50;17.70;99.90
10175;DHT22;18221;38.704;0.152;2022-11-09T01:51:25;17.70;99.90
10175;DHT22;18221;38.704;0.152;2022-11-09T01:54:01;17.70;99.90
10175;DHT22;18221;38.704;0.152;2022-11-09T01:56:32;17.70;99.90
10175;DHT22;18221;38.704;0.152;2022-11-09T01:59:03;17.80;99.90
10175;DHT22;18221;38.704;0.152;2022-11-09T02:01:37;17.80;99.90
10175;DHT22;18221;38.704;0.152;2022-11-09T02:04:08;17.80;99.90
10175;DHT22;18221;38.704;0.152;2022-11-09T02:06:41;17.80;99.90
10175;DHT22;18221;38.704;0.152;2022-11-09T02:09:16;17.80;99.90
10175;DHT22;18221;38.704;0.152;2022-11-09T02:11:50;17.80;99.90
10175;DHT22;18221;38.704;0.152;2022-11-09T02:14:19;17.70;99.90
10175;DHT22;18221;38.704;0.152;2022-11-09T02:16:49;17.70;99.90
10175;DHT22;18221;38.704;0.152;2022-11-09T02:19:17;17.70;99.90
10175;DHT22;18221;38.704;0.152;2022-11-09T02:21:46;17.60;99.90
10175;DHT22;18221;38.704;0.152;2022-11-09T02:24:14;17.60;99.90
10175;DHT22;18221;38.704;0.152;2022-11-09T02:26:44;17.50;99.90
10175;DHT22;18221;38.704;0.152;2022-11-09T02:29:19;17.50;99.90
10175;DHT22;18221;38.704;0.152;2022-11-09T02:31:52;17.50;99.90
10175;DHT22;18221;38.704;0.152;2022-11-09T02:34:23;17.60;99.90
10175;DHT22;18221;38.704;0.152;2022-11-09T02:36:53;17.50;99.90
10175;DHT22;18221;38.704;0.152;2022-11-09T02:39:23;17.60;99.90
10175;DHT22;18221;38.704;0.152;2022-11-09T02:41:56;17.60;99.90
10175;DHT22;18221;38.704;0.152;2022-11-09T02:44:27;17.60;99.90
10175;DHT22;18221;38.704;0.152;2022-11-09T02:46:59;17.60;99.90
10175;DHT22;18221;38.704;0.152;2022-11-09T02:49:27;17.60;99.90
10175;DHT22;18221;38.704;0.152;2022-11-09T02:51:56;17.50;99.90
10175;DHT22;18221;38.704;0.152;2022-11-09T02:54:24;17.50;99.90
10175;DHT22;18221;38.704;0.152;2022-11-09T02:56:52;17.50;99.90
10175;DHT22;18221;38.704;0.152;2022-11-09T02:59:20;17.50;99.90
10175;DHT22;18221;38.704;0.152;2022-11-09T03:01:48;17.50;99.90
10175;DHT22;18221;38.704;0.152;2022-11-09T03:04:16;17.60;99.90
10175;DHT22;18221;38.704;0.152;2022-11-09T03:06:44;17.70;99.90
10175;DHT22;18221;38.704;0.152;2022-11-09T03:09:13;17.80;99.90
10175;DHT22;18221;38.704;0.152;2022-11-09T03:11:41;17.80;99.90
10175;DHT22;18221;38.704;0.152;2022-11-09T03:14:10;17.80;99.90
10175;DHT22;18221;38.704;0.152;2022-11-09T03:16:38;17.90;99.90
10175;DHT22;18221;38.704;0.152;2022-11-09T03:19:06;18.00;99.90
10175;DHT22;18221;38.704;0.152;2022-11-09T03:21:34;18.00;99.90
10175;DHT22;18221;38.704;0.152;2022-11-09T03:24:02;18.00;99.90
10175;DHT22;18221;38.704;0.152;2022-11-09T03:26:32;18.00;99.90
10175;DHT22;18221;38.704;0.152;2022-11-09T03:28:59;18.00;99.90
10175;DHT22;18221;38.704;0.152;2022-11-09T03:31:27;18.00;99.90
10175;DHT22;18221;38.704;0.152;2022-11-09T03:33:55;18.00;99.90
10175;DHT22;18221;38.704;0.152;2022-11-09T03:36:23;18.00;99.90
10175;DHT22;18221;38.704;0.152;2022-11-09T03:38:51;18.00;99.90
10175;DHT22;18221;38.704;0.152;2022-11-09T03:41:18;18.00;99.90
10175;DHT22;18221;38.704;0.152;2022-11-09T03:43:48;17.90;99.90
10175;DHT22;18221;38.704;0.152;2022-11-09T03:46:15;17.90;99.90
10175;DHT22;18221;38.704;0.152;2022-11-09T03:48:43;17.80;99.90
10175;DHT22;18221;38.704;0.152;2022-11-09T03:51:11;17.80;99.90
10175;DHT22;18221;38.704;0.152;2022-11-09T03:53:39;17.80;99.90
10175;DHT22;18221;38.704;0.152;2022-11-09T03:56:07;17.80;99.90
10175;DHT22;18221;38.704;0.152;2022-11-09T03:58:35;17.90;99.90
10175;DHT22;18221;38.704;0.152;2022-11-09T04:01:04;17.90;99.90
10175;DHT22;18221;38.704;0.152;2022-11-09T04:03:32;17.90;99.90
10175;DHT22;18221;38.704;0.152;2022-11-09T04:06:00;17.90;99.90
10175;DHT22;18221;38.704;0.152;2022-11-09T04:08:28;17.90;99.90
10175;DHT22;18221;38.704;0.152;2022-11-09T04:10:56;17.80;99.90
10175;DHT22;18221;38.704;0.152;2022-11-09T04:13:23;17.80;99.90
10175;DHT22;18221;38.704;0.152;2022-11-09T04:15:51;17.80;99.90
10175;DHT22;18221;38.704;0.152;2022-11-09T04:18:20;17.90;99.90
10175;DHT22;18221;38.704;0.152;2022-11-09T04:20:48;17.90;99.90
10175;DHT22;18221;38.704;0.152;2022-11-09T04:23:16;18.00;99.90
10175;DHT22;18221;38.704;0.152;2022-11-09T04:25:44;17.90;99.90
10175;DHT22;18221;38.704;0.152;2022-11-09T04:28:12;18.00;99.90
10175;DHT22;18221;38.704;0.152;2022-11-09T04:30:39;18.00;99.90
10175;DHT22;18221;38.704;0.152;2022-11-09T04:33:08;18.00;99.90
10175;DHT22;18221;38.704;0.152;2022-11-09T04:35:38;18.00;99.90
10175;DHT22;18221;38.704;0.152;2022-11-09T04:38:12;18.00;99.90
10175;DHT22;18221;38.704;0.152;2022-11-09T04:40:40;18.00;99.90
10175;DHT22;18221;38.704;0.152;2022-11-09T04:43:11;18.00;99.90
10175;DHT22;18221;38.704;0.152;2022-11-09T04:45:41;18.00;99.90
10175;DHT22;18221;38.704;0.152;2022-11-09T04:48:09;18.10;99.90
10175;DHT22;18221;38.704;0.152;2022-11-09T04:50:39;18.00;99.90
10175;DHT22;18221;38.704;0.152;2022-11-09T04:53:09;17.90;99.90
10175;DHT22;18221;38.704;0.152;2022-11-09T04:55:38;17.90;99.90
10175;DHT22;18221;38.704;0.152;2022-11-09T04:58:07;17.70;99.90
10175;DHT22;18221;38.704;0.152;2022-11-09T05:00:36;17.70;99.90
10175;DHT22;18221;38.704;0.152;2022-11-09T05:03:05;17.60;99.90
10175;DHT22;18221;38.704;0.152;2022-11-09T05:05:33;17.60;99.90
10175;DHT22;18221;38.704;0.152;2022-11-09T05:08:05;17.50;99.90
10175;DHT22;18221;38.704;0.152;2022-11-09T05:10:33;17.50;99.90
10175;DHT22;18221;38.704;0.152;2022-11-09T05:13:04;17.50;99.90
10175;DHT22;18221;38.704;0.152;2022-11-09T05:15:34;16.80;99.90
10175;DHT22;18221;38.704;0.152;2022-11-09T05:18:03;17.40;99.90
10175;DHT22;18221;38.704;0.152;2022-11-09T05:20:32;17.30;99.90
10175;DHT22;18221;38.704;0.152;2022-11-09T05:23:01;17.30;99.90
10175;DHT22;18221;38.704;0.152;2022-11-09T05:25:48;17.20;99.90
10175;DHT22;18221;38.704;0.152;2022-11-09T05:28:16;17.20;99.90
10175;DHT22;18221;38.704;0.152;2022-11-09T05:30:44;17.10;99.90
10175;DHT22;18221;38.704;0.152;2022-11-09T05:33:12;17.10;99.90
10175;DHT22;18221;38.704;0.152;2022-11-09T05:35:41;17.10;99.90
10175;DHT22;18221;38.704;0.152;2022-11-09T05:38:10;17.10;99.90
10175;DHT22;18221;38.704;0.152;2022-11-09T05:40:37;17.10;99.90
10175;DHT22;18221;38.704;0.152;2022-11-09T05:43:07;17.10;99.90
10175;DHT22;18221;38.704;0.152;2022-11-09T05:45:34;17.20;99.90
10175;DHT22;18221;38.704;0.152;2022-11-09T05:48:03;17.30;99.90
10175;DHT22;18221;38.704;0.152;2022-11-09T05:50:31;18.60;99.90
10175;DHT22;18221;38.704;0.152;2022-11-09T05:52:59;17.30;99.90
10175;DHT22;18221;38.704;0.152;2022-11-09T05:55:28;17.30;99.90
10175;DHT22;18221;38.704;0.152;2022-11-09T05:57:55;17.30;99.90
10175;DHT22;18221;38.704;0.152;2022-11-09T06:00:25;17.20;99.90
10175;DHT22;18221;38.704;0.152;2022-11-09T06:02:53;17.20;99.90
10175;DHT22;18221;38.704;0.152;2022-11-09T06:05:28;17.20;99.90
10175;DHT22;18221;38.704;0.152;2022-11-09T06:08:01;17.20;99.90
10175;DHT22;18221;38.704;0.152;2022-11-09T06:10:29;17.20;99.90
10175;DHT22;18221;38.704;0.152;2022-11-09T06:12:57;17.20;99.90
10175;DHT22;18221;38.704;0.152;2022-11-09T06:15:26;17.10;99.90
10175;DHT22;18221;38.704;0.152;2022-11-09T06:17:55;17.10;99.90
10175;DHT22;18221;38.704;0.152;2022-11-09T06:20:24;17.10;99.90
10175;DHT22;18221;38.704;0.152;2022-11-09T06:22:53;17.10;99.90
10175;DHT22;18221;38.704;0.152;2022-11-09T06:25:21;17.00;99.90
10175;DHT22;18221;38.704;0.152;2022-11-09T06:27:52;17.00;99.90
10175;DHT22;18221;38.704;0.152;2022-11-09T06:30:20;17.00;99.90
10175;DHT22;18221;38.704;0.152;2022-11-09T06:32:50;17.00;99.90
10175;DHT22;18221;38.704;0.152;2022-11-09T06:35:18;16.90;99.90
10175;DHT22;18221;38.704;0.152;2022-11-09T06:37:45;16.90;99.90
10175;DHT22;18221;38.704;0.152;2022-11-09T06:40:13;17.00;99.90
10175;DHT22;18221;38.704;0.152;2022-11-09T06:42:41;17.00;99.90
10175;DHT22;18221;38.704;0.152;2022-11-09T06:45:09;17.00;99.90
10175;DHT22;18221;38.704;0.152;2022-11-09T06:47:37;17.00;99.90
10175;DHT22;18221;38.704;0.152;2022-11-09T06:50:07;17.60;99.90
10175;DHT22;18221;38.704;0.152;2022-11-09T06:52:37;17.10;99.90
10175;DHT22;18221;38.704;0.152;2022-11-09T06:55:06;17.10;99.90
10175;DHT22;18221;38.704;0.152;2022-11-09T06:57:34;17.10;99.90
10175;DHT22;18221;38.704;0.152;2022-11-09T07:00:04;17.10;99.90
10175;DHT22;18221;38.704;0.152;2022-11-09T07:02:33;17.10;99.90
10175;DHT22;18221;38.704;0.152;2022-11-09T07:05:01;17.10;99.90
10175;DHT22;18221;38.704;0.152;2022-11-09T07:07:30;17.20;99.90
10175;DHT22;18221;38.704;0.152;2022-11-09T07:09:58;17.30;99.90
10175;DHT22;18221;38.704;0.152;2022-11-09T07:12:26;17.30;99.90
10175;DHT22;18221;38.704;0.152;2022-11-09T07:14:54;17.40;99.90
10175;DHT22;18221;38.704;0.152;2022-11-09T07:17:22;17.40;99.90
10175;DHT22;18221;38.704;0.152;2022-11-09T07:19:50;17.50;99.90
10175;DHT22;18221;38.704;0.152;2022-11-09T07:22:18;17.50;99.90
10175;DHT22;18221;38.704;0.152;2022-11-09T07:24:47;17.60;99.90
10175;DHT22;18221;38.704;0.152;2022-11-09T07:27:15;17.60;99.90
10175;DHT22;18221;38.704;0.152;2022-11-09T07:29:42;17.60;99.90
10175;DHT22;18221;38.704;0.152;2022-11-09T07:32:10;17.60;99.90
10175;DHT22;18221;38.704;0.152;2022-11-09T07:34:38;17.60;99.90
10175;DHT22;18221;38.704;0.152;2022-11-09T07:37:06;17.70;99.90
10175;DHT22;18221;38.704;0.152;2022-11-09T07:39:34;17.70;99.90
10175;DHT22;18221;38.704;0.152;2022-11-09T07:42:03;17.80;99.90
10175;DHT22;18221;38.704;0.152;2022-11-09T07:44:31;17.80;99.90
10175;DHT22;18221;38.704;0.152;2022-11-09T07:46:59;17.80;99.90
10175;DHT22;18221;38.704;0.152;2022-11-09T07:49:27;17.90;99.90
10175;DHT22;18221;38.704;0.152;2022-11-09T07:51:55;17.90;99.90
10175;DHT22;18221;38.704;0.152;2022-11-09T07:54:22;17.90;99.90
10175;DHT22;18221;38.704;0.152;2022-11-09T07:56:51;18.00;99.90
10175;DHT22;18221;38.704;0.152;2022-11-09T07:59:21;18.10;99.90
10175;DHT22;18221;38.704;0.152;2022-11-09T08:01:48;18.10;99.90
10175;DHT22;18221;38.704;0.152;2022-11-09T08:04:16;18.20;99.90
10175;DHT22;18221;38.704;0.152;2022-11-09T08:06:44;18.20;99.90
10175;DHT22;18221;38.704;0.152;2022-11-09T08:09:12;18.30;99.90
10175;DHT22;18221;38.704;0.152;2022-11-09T08:11:40;18.30;99.90
10175;DHT22;18221;38.704;0.152;2022-11-09T08:14:08;18.30;99.90
10175;DHT22;18221;38.704;0.152;2022-11-09T08:16:37;18.30;99.90
10175;DHT22;18221;38.704;0.152;2022-11-09T08:19:05;18.30;99.90
10175;DHT22;18221;38.704;0.152;2022-11-09T08:21:35;18.30;99.90
10175;DHT22;18221;38.704;0.152;2022-11-09T08:24:03;18.30;99.90
10175;DHT22;18221;38.704;0.152;2022-11-09T08:26:33;18.30;99.90
10175;DHT22;18221;38.704;0.152;2022-11-09T08:29:01;18.40;99.90
10175;DHT22;18221;38.704;0.152;2022-11-09T08:31:29;18.40;99.90
10175;DHT22;18221;38.704;0.152;2022-11-09T08:33:59;18.50;99.90
10175;DHT22;18221;38.704;0.152;2022-11-09T08:36:27;18.60;99.90
10175;DHT22;18221;38.704;0.152;2022-11-09T08:38:55;18.60;99.90
10175;DHT22;18221;38.704;0.152;2022-11-09T08:41:28;18.70;99.90
10175;DHT22;18221;38.704;0.152;2022-11-09T08:43:55;18.70;99.90
10175;DHT22;18221;38.704;0.152;2022-11-09T08:46:23;18.70;99.90
10175;DHT22;18221;38.704;0.152;2022-11-09T08:48:51;18.70;99.90
10175;DHT22;18221;38.704;0.152;2022-11-09T08:51:20;18.70;99.90
10175;DHT22;18221;38.704;0.152;2022-11-09T08:53:48;18.60;99.90
10175;DHT22;18221;38.704;0.152;2022-11-09T08:56:16;18.60;99.90
10175;DHT22;18221;38.704;0.152;2022-11-09T08:58:44;18.60;99.90
10175;DHT22;18221;38.704;0.152;2022-11-09T09:01:13;18.60;99.90
10175;DHT22;18221;38.704;0.152;2022-11-09T09:03:40;18.50;99.90
10175;DHT22;18221;38.704;0.152;2022-11-09T09:06:08;18.50;99.90
10175;DHT22;18221;38.704;0.152;2022-11-09T09:08:38;18.50;99.90
10175;DHT22;18221;38.704;0.152;2022-11-09T09:11:06;18.40;99.90
10175;DHT22;18221;38.704;0.152;2022-11-09T09:13:34;18.40;99.90
10175;DHT22;18221;38.704;0.152;2022-11-09T09:16:09;18.30;99.90
10175;DHT22;18221;38.704;0.152;2022-11-09T09:18:37;18.40;99.90
10175;DHT22;18221;38.704;0.152;2022-11-09T09:21:06;18.40;99.90
10175;DHT22;18221;38.704;0.152;2022-11-09T09:23:34;18.50;99.90
10175;DHT22;18221;38.704;0.152;2022-11-09T09:26:03;18.60;99.90
10175;DHT22;18221;38.704;0.152;2022-11-09T09:28:31;18.60;99.90
10175;DHT22;18221;38.704;0.152;2022-11-09T09:31:00;18.70;99.90
10175;DHT22;18221;38.704;0.152;2022-11-09T09:33:29;18.80;99.90
10175;DHT22;18221;38.704;0.152;2022-11-09T09:35:58;18.80;99.90
10175;DHT22;18221;38.704;0.152;2022-11-09T09:38:26;18.90;99.90
10175;DHT22;18221;38.704;0.152;2022-11-09T09:40:58;18.90;99.90
10175;DHT22;18221;38.704;0.152;2022-11-09T09:43:34;18.90;99.90
10175;DHT22;18221;38.704;0.152;2022-11-09T09:46:11;19.00;99.90
10175;DHT22;18221;38.704;0.152;2022-11-09T09:48:49;19.00;99.90
10175;DHT22;18221;38.704;0.152;2022-11-09T09:51:24;19.10;99.90
10175;DHT22;18221;38.704;0.152;2022-11-09T09:54:02;19.10;99.90
10175;DHT22;18221;38.704;0.152;2022-11-09T09:56:37;19.10;99.90
10175;DHT22;18221;38.704;0.152;2022-11-09T09:59:14;19.20;99.90
10175;DHT22;18221;38.704;0.152;2022-11-09T10:01:48;19.30;99.90
10175;DHT22;18221;38.704;0.152;2022-11-09T10:04:18;19.30;99.90
10175;DHT22;18221;38.704;0.152;2022-11-09T10:06:57;19.30;99.90
10175;DHT22;18221;38.704;0.152;2022-11-09T10:09:44;19.40;99.90
10175;DHT22;18221;38.704;0.152;2022-11-09T10:12:34;19.40;99.90
10175;DHT22;18221;38.704;0.152;2022-11-09T10:15:20;19.50;99.90
10175;DHT22;18221;38.704;0.152;2022-11-09T10:18:08;19.60;99.90
10175;DHT22;18221;38.704;0.152;2022-11-09T10:20:59;19.70;99.90
10175;DHT22;18221;38.704;0.152;2022-11-09T10:23:56;19.70;99.90
10175;DHT22;18221;38.704;0.152;2022-11-09T10:26:40;19.80;99.90
10175;DHT22;18221;38.704;0.152;2022-11-09T10:29:21;19.90;99.90
10175;DHT22;18221;38.704;0.152;2022-11-09T10:31:54;20.00;99.90
10175;DHT22;18221;38.704;0.152;2022-11-09T10:34:29;20.00;99.90
10175;DHT22;18221;38.704;0.152;2022-11-09T10:37:05;20.10;99.90
10175;DHT22;18221;38.704;0.152;2022-11-09T10:39:45;20.10;99.90
10175;DHT22;18221;38.704;0.152;2022-11-09T10:42:15;20.00;99.90
10175;DHT22;18221;38.704;0.152;2022-11-09T10:44:43;20.10;99.90
10175;DHT22;18221;38.704;0.152;2022-11-09T10:47:14;20.20;99.90
10175;DHT22;18221;38.704;0.152;2022-11-09T10:49:44;20.40;99.90
10175;DHT22;18221;38.704;0.152;2022-11-09T10:52:33;20.40;99.90
10175;DHT22;18221;38.704;0.152;2022-11-09T10:55:23;20.40;99.90
10175;DHT22;18221;38.704;0.152;2022-11-09T10:57:55;20.40;99.90
10175;DHT22;18221;38.704;0.152;2022-11-09T11:00:25;20.40;99.90
10175;DHT22;18221;38.704;0.152;2022-11-09T11:02:55;20.50;99.90
10175;DHT22;18221;38.704;0.152;2022-11-09T11:05:32;20.70;99.90
10175;DHT22;18221;38.704;0.152;2022-11-09T11:08:24;20.90;99.90
10175;DHT22;18221;38.704;0.152;2022-11-09T11:11:21;20.90;99.90
10175;DHT22;18221;38.704;0.152;2022-11-09T11:14:10;21.00;99.90
10175;DHT22;18221;38.704;0.152;2022-11-09T11:16:42;21.10;99.90
10175;DHT22;18221;38.704;0.152;2022-11-09T11:19:32;21.20;99.90
10175;DHT22;18221;38.704;0.152;2022-11-09T11:22:16;21.20;99.90
10175;DHT22;18221;38.704;0.152;2022-11-09T11:24:55;21.20;99.90
10175;DHT22;18221;38.704;0.152;2022-11-09T11:27:29;21.30;99.90
10175;DHT22;18221;38.704;0.152;2022-11-09T11:30:08;21.30;99.90
10175;DHT22;18221;38.704;0.152;2022-11-09T11:32:39;21.30;99.90
10175;DHT22;18221;38.704;0.152;2022-11-09T11:35:14;21.20;99.90
10175;DHT22;18221;38.704;0.152;2022-11-09T11:37:52;21.10;99.90
10175;DHT22;18221;38.704;0.152;2022-11-09T11:40:34;21.10;99.90
10175;DHT22;18221;38.704;0.152;2022-11-09T11:43:21;21.10;99.90
10175;DHT22;18221;38.704;0.152;2022-11-09T11:46:05;21.10;99.90
10175;DHT22;18221;38.704;0.152;2022-11-09T11:49:03;21.10;99.90
10175;DHT22;18221;38.704;0.152;2022-11-09T11:51:55;21.10;99.90
10175;DHT22;18221;38.704;0.152;2022-11-09T11:54:37;21.10;99.90
10175;DHT22;18221;38.704;0.152;2022-11-09T11:57:21;21.10;99.90
10175;DHT22;18221;38.704;0.152;2022-11-09T12:00:08;21.20;99.90
10175;DHT22;18221;38.704;0.152;2022-11-09T12:06:13;21.30;99.90
10175;DHT22;18221;38.704;0.152;2022-11-09T12:09:09;21.40;99.90
10175;DHT22;18221;38.704;0.152;2022-11-09T12:12:02;21.30;99.90
10175;DHT22;18221;38.704;0.152;2022-11-09T12:14:46;21.30;99.90
10175;DHT22;18221;38.704;0.152;2022-11-09T12:17:27;21.50;99.90
10175;DHT22;18221;38.704;0.152;2022-11-09T12:20:19;21.50;99.90
10175;DHT22;18221;38.704;0.152;2022-11-09T12:23:01;21.60;99.90
10175;DHT22;18221;38.704;0.152;2022-11-09T12:25:50;21.70;99.90
10175;DHT22;18221;38.704;0.152;2022-11-09T12:31:52;21.50;99.90
10175;DHT22;18221;38.704;0.152;2022-11-09T12:34:35;21.70;99.90
10175;DHT22;18221;38.704;0.152;2022-11-09T12:37:12;21.60;99.90
10175;DHT22;18221;38.704;0.152;2022-11-09T12:39:45;21.80;99.90
10175;DHT22;18221;38.704;0.152;2022-11-09T12:42:20;21.80;99.90
10175;DHT22;18221;38.704;0.152;2022-11-09T12:44:58;21.80;99.90
10175;DHT22;18221;38.704;0.152;2022-11-09T12:47:38;21.70;99.90
10175;DHT22;18221;38.704;0.152;2022-11-09T12:50:12;21.70;99.90
10175;DHT22;18221;38.704;0.152;2022-11-09T12:52:43;21.80;99.90
10175;DHT22;18221;38.704;0.152;2022-11-09T12:55:14;21.70;99.90
10175;DHT22;18221;38.704;0.152;2022-11-09T12:57:46;21.70;99.90
10175;DHT22;18221;38.704;0.152;2022-11-09T13:00:46;21.60;99.90
10175;DHT22;18221;38.704;0.152;2022-11-09T13:03:22;21.60;99.90
10175;DHT22;18221;38.704;0.152;2022-11-09T13:06:10;21.60;99.90
10175;DHT22;18221;38.704;0.152;2022-11-09T13:08:56;21.70;99.90
10175;DHT22;18221;38.704;0.152;2022-11-09T13:11:34;21.80;99.90
10175;DHT22;18221;38.704;0.152;2022-11-09T13:14:33;21.60;99.90
10175;DHT22;18221;38.704;0.152;2022-11-09T13:20:53;21.70;99.90
10175;DHT22;18221;38.704;0.152;2022-11-09T13:23:33;22.00;99.90
10175;DHT22;18221;38.704;0.152;2022-11-09T13:26:04;21.80;99.90
10175;DHT22;18221;38.704;0.152;2022-11-09T13:29:08;22.10;99.90
10175;DHT22;18221;38.704;0.152;2022-11-09T13:34:59;22.00;99.90
10175;DHT22;18221;38.704;0.152;2022-11-09T13:37:43;21.80;99.90
10175;DHT22;18221;38.704;0.152;2022-11-09T13:40:42;21.70;99.90
10175;DHT22;18221;38.704;0.152;2022-11-09T13:43:16;21.60;99.90
10175;DHT22;18221;38.704;0.152;2022-11-09T13:45:48;21.50;99.90
10175;DHT22;18221;38.704;0.152;2022-11-09T13:51:16;21.30;99.90
10175;DHT22;18221;38.704;0.152;2022-11-09T13:53:51;21.20;99.90
10175;DHT22;18221;38.704;0.152;2022-11-09T13:56:27;21.20;99.90
10175;DHT22;18221;38.704;0.152;2022-11-09T13:59:05;21.20;99.90
10175;DHT22;18221;38.704;0.152;2022-11-09T14:01:47;21.10;99.90
10175;DHT22;18221;38.704;0.152;2022-11-09T14:04:25;21.10;99.90
10175;DHT22;18221;38.704;0.152;2022-11-09T14:07:00;21.20;99.90
10175;DHT22;18221;38.704;0.152;2022-11-09T14:09:38;21.20;99.90
10175;DHT22;18221;38.704;0.152;2022-11-09T14:12:29;21.10;99.90
10175;DHT22;18221;38.704;0.152;2022-11-09T14:15:27;21.10;99.90
10175;DHT22;18221;38.704;0.152;2022-11-09T14:18:14;21.10;99.90
10175;DHT22;18221;38.704;0.152;2022-11-09T14:20:58;21.10;99.90
10175;DHT22;18221;38.704;0.152;2022-11-09T14:23:33;21.20;99.90
10175;DHT22;18221;38.704;0.152;2022-11-09T14:26:06;21.20;99.90
10175;DHT22;18221;38.704;0.152;2022-11-09T14:28:35;21.30;99.90
10175;DHT22;18221;38.704;0.152;2022-11-09T14:31:02;21.40;99.90
10175;DHT22;18221;38.704;0.152;2022-11-09T14:33:32;21.40;99.90
10175;DHT22;18221;38.704;0.152;2022-11-09T14:36:04;21.10;99.90
10175;DHT22;18221;38.704;0.152;2022-11-09T14:38:34;21.50;99.90
10175;DHT22;18221;38.704;0.152;2022-11-09T14:41:18;21.50;99.90
10175;DHT22;18221;38.704;0.152;2022-11-09T14:43:48;21.60;99.90
10175;DHT22;18221;38.704;0.152;2022-11-09T14:46:21;21.60;99.90
10175;DHT22;18221;38.704;0.152;2022-11-09T14:48:52;21.80;99.90
10175;DHT22;18221;38.704;0.152;2022-11-09T14:51:29;21.80;99.90
10175;DHT22;18221;38.704;0.152;2022-11-09T14:54:00;21.80;99.90
10175;DHT22;18221;38.704;0.152;2022-11-09T14:56:33;21.80;99.90
10175;DHT22;18221;38.704;0.152;2022-11-09T14:59:04;21.70;99.90
10175;DHT22;18221;38.704;0.152;2022-11-09T15:01:33;21.70;99.90
10175;DHT22;18221;38.704;0.152;2022-11-09T15:04:10;21.80;99.90
10175;DHT22;18221;38.704;0.152;2022-11-09T15:06:48;21.60;99.90
10175;DHT22;18221;38.704;0.152;2022-11-09T15:09:19;21.50;99.90
10175;DHT22;18221;38.704;0.152;2022-11-09T15:11:50;21.50;99.90
10175;DHT22;18221;38.704;0.152;2022-11-09T15:14:24;21.50;99.90
10175;DHT22;18221;38.704;0.152;2022-11-09T15:17:03;21.00;99.90
10175;DHT22;18221;38.704;0.152;2022-11-09T15:19:37;21.40;99.90
10175;DHT22;18221;38.704;0.152;2022-11-09T15:22:43;21.40;99.90
10175;DHT22;18221;38.704;0.152;2022-11-09T15:25:21;21.30;99.90
10175;DHT22;18221;38.704;0.152;2022-11-09T15:28:02;21.20;99.90
10175;DHT22;18221;38.704;0.152;2022-11-09T15:30:45;21.20;99.90
10175;DHT22;18221;38.704;0.152;2022-11-09T15:33:23;21.10;99.90
10175;DHT22;18221;38.704;0.152;2022-11-09T15:35:54;21.10;99.90
10175;DHT22;18221;38.704;0.152;2022-11-09T15:38:31;21.10;99.90
10175;DHT22;18221;38.704;0.152;2022-11-09T15:41:02;21.10;99.90
10175;DHT22;18221;38.704;0.152;2022-11-09T15:43:35;21.10;99.90
10175;DHT22;18221;38.704;0.152;2022-11-09T15:46:04;21.00;99.90
10175;DHT22;18221;38.704;0.152;2022-11-09T15:48:33;20.90;99.90
10175;DHT22;18221;38.704;0.152;2022-11-09T15:51:02;20.90;99.90
10175;DHT22;18221;38.704;0.152;2022-11-09T15:53:32;20.80;99.90
10175;DHT22;18221;38.704;0.152;2022-11-09T15:56:00;20.80;99.90
10175;DHT22;18221;38.704;0.152;2022-11-09T15:58:28;20.70;99.90
10175;DHT22;18221;38.704;0.152;2022-11-09T16:00:56;20.70;99.90
10175;DHT22;18221;38.704;0.152;2022-11-09T16:03:24;20.60;99.90
10175;DHT22;18221;38.704;0.152;2022-11-09T16:05:52;20.60;99.90
10175;DHT22;18221;38.704;0.152;2022-11-09T16:08:19;20.50;99.90
10175;DHT22;18221;38.704;0.152;2022-11-09T16:10:49;20.50;99.90
10175;DHT22;18221;38.704;0.152;2022-11-09T16:13:17;20.50;99.90
10175;DHT22;18221;38.704;0.152;2022-11-09T16:15:44;20.40;99.90
10175;DHT22;18221;38.704;0.152;2022-11-09T16:18:12;20.40;99.90
10175;DHT22;18221;38.704;0.152;2022-11-09T16:20:40;20.30;99.90
10175;DHT22;18221;38.704;0.152;2022-11-09T16:23:08;20.20;99.90
10175;DHT22;18221;38.704;0.152;2022-11-09T16:25:36;20.20;99.90
10175;DHT22;18221;38.704;0.152;2022-11-09T16:28:05;20.10;99.90